Time;durP1;ratioP1;P1;durP2;ratioP2;P2;SDS_P1;SDS_P2;PMS_P1;PMS_P2;Temp;Humidity;BMP_temperature;BMP_pressure;BME280_temperature;BME280_humidity;BME280_pressure;Samples;Min_cycle;Max_cycle;Signal;HPM_P1;HPM_P2
2021/08/05 00:00:00;;;;;;;4.68;2.92;;;18.50;76.70;;;18.36;61.57;94361.19;5016770;28;20218;-81
2021/08/05 00:02:30;;;;;;;2.83;2.58;;;18.50;76.70;;;18.30;61.53;94356.09;5033331;28;20199;-82
2021/08/05 00:04:57;;;;;;;3.95;2.88;;;18.40;76.60;;;18.31;61.71;94360.34;5033142;28;20224;-82
2021/08/05 00:07:24;;;;;;;4.25;2.78;;;18.40;76.70;;;18.28;61.96;94356.34;5033395;28;20200;-81
2021/08/05 00:09:51;;;;;;;3.70;2.95;;;18.40;76.70;;;18.28;61.42;94355.53;5016360;28;20220;-82
2021/08/05 00:12:18;;;;;;;5.30;2.90;;;18.40;76.80;;;18.22;61.44;94344.06;5016752;28;20192;-82
2021/08/05 00:14:45;;;;;;;3.05;2.70;;;18.40;76.80;;;18.25;62.06;94356.84;5033085;28;20314;-82
2021/08/05 00:17:13;;;;;;;2.83;2.60;;;18.40;76.90;;;18.24;61.53;94355.25;5032993;28;20231;-82
2021/08/05 00:19:40;;;;;;;2.70;2.40;;;18.30;76.90;;;18.24;61.68;94348.06;5016676;28;20230;-82
2021/08/05 00:22:08;;;;;;;3.30;2.50;;;18.30;77.00;;;18.22;62.19;94357.34;5032796;28;20284;-83
2021/08/05 00:24:35;;;;;;;3.10;2.47;;;18.30;76.90;;;18.22;61.77;94349.38;5032875;28;20239;-82
2021/08/05 00:27:03;;;;;;;2.53;2.33;;;18.30;77.00;;;18.23;62.09;94348.34;5032896;28;20631;-82
2021/08/05 00:29:30;;;;;;;2.65;2.40;;;18.30;77.10;;;18.22;62.00;94354.69;5016216;28;20192;-81
2021/08/05 00:31:57;;;;;;;2.88;2.58;;;18.30;77.00;;;18.22;61.93;94355.50;5032457;28;20236;-82
2021/08/05 00:34:24;;;;;;;2.65;2.45;;;18.30;77.00;;;18.23;61.80;94354.44;5032940;28;20220;-81
2021/08/05 00:36:53;;;;;;;2.70;2.50;;;18.30;77.00;;;18.21;61.69;94353.91;5032584;28;20279;-82
2021/08/05 00:39:20;;;;;;;2.58;2.28;;;18.30;77.10;;;18.24;61.92;94358.69;5032824;28;20192;-81
2021/08/05 00:41:47;;;;;;;2.40;2.20;;;18.30;77.20;;;18.22;61.72;94355.50;5032269;28;20206;-82
2021/08/05 00:44:14;;;;;;;2.78;2.28;;;18.30;77.20;;;18.23;62.36;94357.09;5031846;28;20218;-81
2021/08/05 00:46:41;;;;;;;2.83;2.03;;;18.30;77.20;;;18.23;62.19;94359.75;5016166;28;20224;-81
2021/08/05 00:49:09;;;;;;;2.13;1.90;;;18.30;77.20;;;18.27;61.86;94370.66;5033978;28;20188;-81
2021/08/05 00:51:37;;;;;;;2.47;2.00;;;18.40;77.30;;;18.22;62.34;94354.69;5015646;28;20402;-82
2021/08/05 00:54:04;;;;;;;1.98;1.77;;;18.40;77.20;;;18.24;61.80;94353.38;5015775;28;20252;-82
2021/08/05 00:56:31;;;;;;;2.00;1.90;;;18.40;77.30;;;18.25;62.30;94343.59;5016091;28;20224;-82
2021/08/05 00:58:59;;;;;;;2.38;2.03;;;18.30;77.20;;;18.24;61.80;94347.28;5032045;28;20204;-82
2021/08/05 01:01:34;;;;;;;3.13;2.40;;;18.30;77.20;;;18.20;61.99;94344.34;5032024;28;20309;-81
2021/08/05 01:04:02;;;;;;;1.98;1.80;;;18.40;77.40;;;18.20;61.69;94351.47;5016035;28;20635;-81
2021/08/05 01:06:51;;;;;;;2.33;2.05;;;18.30;77.10;;;18.17;62.12;94339.53;5031892;28;20282;-81
2021/08/05 01:09:45;;;;;;;2.10;1.90;;;18.30;77.20;;;18.14;61.91;94332.09;5031232;28;20291;-82
2021/08/05 01:12:55;;;;;;;2.45;2.20;;;18.30;77.50;;;18.14;61.88;94340.03;5031760;28;20302;-82
2021/08/05 01:15:26;;;;;;;3.45;2.28;;;18.30;77.50;;;18.14;61.97;94339.22;5031954;28;20226;-82
2021/08/05 01:18:12;;;;;;;3.50;2.10;;;18.30;77.30;;;18.13;62.34;94337.66;5015680;28;20254;-81
2021/08/05 01:20:44;;;;;;;2.78;2.28;;;18.20;77.40;;;18.13;62.20;94340.31;5015255;28;20243;-82
2021/08/05 01:23:33;;;;;;;3.03;2.15;;;18.30;77.60;;;18.13;62.29;94349.06;5015253;28;20206;-83
2021/08/05 01:26:31;;;;;;;2.53;1.90;;;18.20;77.50;;;18.11;62.61;94353.81;5031683;28;20208;-82
2021/08/05 01:29:03;;;;;;;2.35;2.15;;;18.20;77.30;;;18.08;62.29;94356.97;5014177;28;20318;-81
2021/08/05 01:31:33;;;;;;;2.00;1.90;;;18.20;77.70;;;17.99;62.76;94345.22;5031395;28;20235;-81
2021/08/05 01:34:00;;;;;;;1.83;1.70;;;18.20;77.40;;;17.86;62.71;94339.25;5015461;28;20638;-81
2021/08/05 01:36:29;;;;;;;2.10;1.95;;;18.20;77.30;;;17.80;62.97;94332.28;5031291;28;20223;-81
2021/08/05 01:38:58;;;;;;;2.40;2.20;;;18.10;77.30;;;17.74;62.44;94328.00;5015113;28;20192;-81
2021/08/05 01:41:28;;;;;;;2.83;2.20;;;18.10;77.40;;;17.67;63.21;94328.19;5031276;28;20215;-81
2021/08/05 01:43:56;;;;;;;2.28;2.08;;;18.00;77.40;;;17.63;62.85;94335.03;5015283;28;20202;-82
2021/08/05 01:46:24;;;;;;;2.28;2.05;;;17.90;77.50;;;17.60;63.17;94336.34;5031292;28;20641;-82
2021/08/05 01:48:54;;;;;;;3.22;2.40;;;17.90;77.50;;;17.56;63.07;94334.44;5031577;28;20208;-83
2021/08/05 01:51:21;;;;;;;3.25;2.00;;;17.80;77.80;;;17.55;63.16;94330.19;5014709;28;20228;-82
2021/08/05 01:53:51;;;;;;;2.20;2.00;;;17.80;77.70;;;17.54;63.40;94328.56;5031716;28;20192;-82
2021/08/05 01:56:25;;;;;;;2.30;2.10;;;17.80;77.90;;;17.52;63.29;94325.41;5014843;28;20564;-82
2021/08/05 01:58:56;;;;;;;2.13;1.92;;;17.70;78.20;;;17.49;63.04;94329.34;5031278;28;20619;-82
2021/08/05 02:01:23;;;;;;;2.60;2.40;;;17.70;77.70;;;17.47;63.16;94328.78;5015767;28;20228;-82
2021/08/05 02:04:15;;;;;;;2.65;2.35;;;17.70;77.60;;;17.36;62.79;94322.56;5031224;28;20196;-82
2021/08/05 02:07:09;;;;;;;2.47;2.17;;;17.70;77.90;;;17.35;63.17;94330.78;5031657;28;20184;-83
2021/08/05 02:09:48;;;;;;;3.58;2.42;;;17.60;77.80;;;17.31;62.83;94327.81;5031147;28;20755;-83
2021/08/05 02:12:17;;;;;;;3.33;2.35;;;17.50;77.70;;;17.27;63.19;94327.53;5031315;28;20210;-82
2021/08/05 02:14:45;;;;;;;2.85;1.90;;;17.50;77.50;;;17.27;63.25;94322.22;5031140;28;20224;-82
2021/08/05 02:17:12;;;;;;;3.47;2.45;;;17.60;77.80;;;17.26;63.06;94322.47;5030926;28;20207;-82
2021/08/05 02:19:40;;;;;;;2.80;2.40;;;17.50;77.70;;;17.25;63.00;94319.00;5014885;28;20220;-82
2021/08/05 02:22:08;;;;;;;2.92;2.40;;;17.50;77.90;;;17.24;63.57;94314.75;5031024;28;20188;-81
2021/08/05 02:24:36;;;;;;;2.42;2.22;;;17.50;78.00;;;17.22;63.34;94313.41;5014505;28;20754;-81
2021/08/05 02:27:04;;;;;;;3.88;3.13;;;17.50;78.00;;;17.24;63.45;94312.09;5014448;28;20204;-81
2021/08/05 02:29:32;;;;;;;2.38;2.15;;;17.40;77.90;;;17.24;63.44;94309.44;5014434;28;20198;-82
2021/08/05 02:31:59;;;;;;;2.90;2.38;;;17.40;78.10;;;17.24;63.46;94312.09;5014550;28;20627;-82
2021/08/05 02:34:28;;;;;;;2.38;2.17;;;17.40;78.10;;;17.26;63.16;94301.28;5014425;28;20238;-82
2021/08/05 02:36:55;;;;;;;2.65;2.33;;;17.50;78.30;;;17.27;63.70;94300.19;5031150;28;20602;-83
2021/08/05 02:39:25;;;;;;;3.80;2.53;;;17.40;78.40;;;17.28;63.04;94299.16;5014899;28;20561;-82
2021/08/05 02:41:53;;;;;;;3.53;2.50;;;17.40;78.30;;;17.28;63.50;94299.97;5014304;28;20230;-82
2021/08/05 02:44:21;;;;;;;3.45;2.40;;;17.40;78.30;;;17.31;63.36;94306.63;5013832;28;20642;-82
2021/08/05 02:46:49;;;;;;;2.75;2.45;;;17.40;78.40;;;17.31;63.07;94301.31;5014396;28;20204;-81
2021/08/05 02:49:18;;;;;;;3.05;2.38;;;17.40;78.50;;;17.33;63.38;94293.13;5031026;28;20280;-82
2021/08/05 02:51:46;;;;;;;3.42;2.28;;;17.40;78.40;;;17.33;63.34;94299.19;5030823;28;20695;-82
2021/08/05 02:54:16;;;;;;;3.58;2.75;;;17.40;78.50;;;17.35;63.38;94297.13;5014517;28;20197;-82
2021/08/05 02:56:43;;;;;;;3.05;2.75;;;17.50;78.50;;;17.34;63.22;94289.41;5014469;28;20233;-83
2021/08/05 02:59:11;;;;;;;3.03;2.60;;;17.40;78.40;;;17.36;63.67;94287.31;5031195;28;20668;-83
2021/08/05 03:01:41;;;;;;;2.45;2.25;;;17.50;78.60;;;17.37;63.67;94288.91;5030754;28;20220;-82
2021/08/05 03:04:10;;;;;;;2.60;2.40;;;17.40;78.60;;;17.40;63.67;94294.50;5030904;28;20199;-82
2021/08/05 03:06:40;;;;;;;2.60;2.30;;;17.50;78.80;;;17.40;63.73;94291.84;5030538;28;20212;-82
2021/08/05 03:09:07;;;;;;;2.35;2.15;;;17.50;78.80;;;17.44;63.65;94289.50;5033748;28;20196;-82
2021/08/05 03:11:34;;;;;;;2.45;2.25;;;17.50;78.60;;;17.47;63.48;94281.06;5017587;28;20227;-82
2021/08/05 03:14:02;;;;;;;2.22;2.00;;;17.50;78.60;;;17.44;63.31;94281.56;5034240;28;20231;-82
2021/08/05 03:16:29;;;;;;;3.10;2.08;;;17.50;78.60;;;17.49;63.58;94280.81;5033952;28;20223;-82
2021/08/05 03:18:57;;;;;;;2.40;1.95;;;17.60;78.70;;;17.51;63.76;94284.81;5034306;28;20322;-82
2021/08/05 03:21:24;;;;;;;2.30;2.00;;;17.60;78.70;;;17.51;63.82;94273.41;5017510;28;20218;-81
2021/08/05 03:23:51;;;;;;;2.47;2.10;;;17.60;78.70;;;17.53;63.36;94272.09;5034080;28;20296;-82
2021/08/05 03:26:19;;;;;;;2.20;2.00;;;17.60;78.70;;;17.53;63.65;94274.75;5034043;28;20693;-81
2021/08/05 03:28:46;;;;;;;2.05;1.80;;;17.60;78.60;;;17.52;63.98;94283.75;5035233;28;20199;-80
2021/08/05 03:31:13;;;;;;;2.00;1.80;;;17.60;78.60;;;17.51;63.81;94274.19;5033653;28;20224;-81
2021/08/05 03:33:40;;;;;;;1.90;1.60;;;17.60;78.60;;;17.52;63.93;94270.50;5034049;28;20192;-82
2021/08/05 03:36:07;;;;;;;2.30;2.00;;;17.60;78.60;;;17.51;63.85;94278.72;5033927;28;20220;-83
2021/08/05 03:38:35;;;;;;;2.20;2.00;;;17.60;78.50;;;17.45;63.86;94272.56;5033764;28;20210;-82
2021/08/05 03:41:03;;;;;;;1.75;1.65;;;17.70;78.60;;;17.52;63.65;94275.03;5033527;28;20212;-82
2021/08/05 03:43:30;;;;;;;2.00;1.80;;;17.60;78.60;;;17.49;63.39;94268.38;5033716;28;20231;-82
2021/08/05 03:45:57;;;;;;;2.05;1.80;;;17.60;78.60;;;17.49;63.69;94267.56;5016869;28;20306;-82
2021/08/05 03:48:25;;;;;;;3.28;1.88;;;17.60;78.50;;;17.50;63.67;94269.16;5017272;28;20664;-82
2021/08/05 03:50:53;;;;;;;1.80;1.70;;;17.70;78.70;;;17.50;63.95;94263.84;5016974;28;20231;-81
2021/08/05 03:53:20;;;;;;;1.85;1.65;;;17.70;78.70;;;17.49;64.01;94272.84;5033356;28;20204;-82
2021/08/05 03:55:48;;;;;;;1.80;1.70;;;17.60;78.60;;;17.50;63.81;94271.81;5028484;28;20247;-81
2021/08/05 03:58:15;;;;;;;2.33;1.90;;;17.60;78.60;;;17.49;63.67;94262.25;5013563;28;20200;-82
2021/08/05 04:00:43;;;;;;;1.50;1.40;;;17.60;78.60;;;17.42;63.54;94251.88;4997296;28;20644;-81
2021/08/05 04:03:10;;;;;;;2.15;1.75;;;17.60;78.50;;;17.49;63.68;94268.38;5013341;28;20196;-82
2021/08/05 04:05:38;;;;;;;1.67;1.58;;;17.60;78.60;;;17.47;63.71;94267.81;5025595;28;20603;-82
2021/08/05 04:08:05;;;;;;;1.83;1.70;;;17.60;78.60;;;17.47;63.69;94261.69;5021124;28;20250;-82
2021/08/05 04:10:32;;;;;;;1.88;1.77;;;17.70;78.70;;;17.47;63.60;94259.84;5021132;28;20240;-81
2021/08/05 04:12:59;;;;;;;1.77;1.67;;;17.60;78.70;;;17.47;63.58;94257.22;5013230;28;20266;-82
2021/08/05 04:15:27;;;;;;;2.00;1.80;;;17.60;78.70;;;17.49;63.60;94257.75;4996895;28;20209;-82
2021/08/05 04:17:54;;;;;;;1.80;1.70;;;17.60;78.80;;;17.43;63.61;94246.31;5029567;28;20311;-82
2021/08/05 04:20:21;;;;;;;1.75;1.65;;;17.60;78.80;;;17.50;63.70;94256.69;5013004;28;20694;-83
2021/08/05 04:22:49;;;;;;;1.70;1.60;;;17.60;78.80;;;17.51;64.04;94254.84;5013314;28;20299;-82
2021/08/05 04:25:16;;;;;;;1.70;1.60;;;17.60;78.90;;;17.51;64.02;94252.19;5012674;28;20691;-82
2021/08/05 04:27:44;;;;;;;1.77;1.50;;;17.60;79.00;;;17.54;63.71;94260.47;5013059;28;20195;-81
2021/08/05 04:30:14;;;;;;;3.13;1.63;;;17.60;79.00;;;17.56;63.59;94258.34;4996585;28;20244;-82
2021/08/05 04:32:42;;;;;;;2.10;1.70;;;17.60;79.00;;;17.56;63.79;94246.94;5012773;28;20236;-82
2021/08/05 04:35:11;;;;;;;1.80;1.70;;;17.60;78.90;;;17.57;63.80;94246.69;5013948;28;20632;-82
2021/08/05 04:37:58;;;;;;;1.73;1.60;;;17.70;79.10;;;17.58;63.93;94242.97;4996755;28;20670;-82
2021/08/05 04:40:29;;;;;;;1.67;1.58;;;17.60;79.40;;;17.60;63.88;94243.53;5012606;28;20650;-82
2021/08/05 04:42:56;;;;;;;1.60;1.50;;;17.70;79.10;;;17.63;63.83;94244.09;5028950;28;20656;-82
2021/08/05 04:45:24;;;;;;;1.98;1.50;;;17.70;79.90;;;17.64;63.69;94240.38;4980235;28;20240;-80
2021/08/05 04:48:03;;;;;;;1.70;1.55;;;17.80;79.00;;;17.64;63.57;94249.13;5029296;28;20284;-81
2021/08/05 04:50:34;;;;;;;2.50;1.50;;;17.70;79.10;;;17.64;63.89;94250.97;5012538;28;20252;-81
2021/08/05 04:53:02;;;;;;;1.52;1.42;;;17.80;79.10;;;17.66;63.73;94241.72;4996327;28;20779;-81
2021/08/05 04:55:30;;;;;;;2.67;1.40;;;17.70;79.00;;;17.68;63.69;94238.81;5012534;28;20223;-81
2021/08/05 04:58:01;;;;;;;1.40;1.30;;;17.70;79.00;;;17.68;63.74;94238.81;5012092;28;20671;-82
2021/08/05 05:00:38;;;;;;;1.38;1.27;;;17.70;79.00;;;17.68;63.92;94238.81;5028867;28;20295;-82
2021/08/05 05:03:06;;;;;;;1.50;1.40;;;17.70;79.10;;;17.70;64.20;94247.31;5012420;28;20220;-82
2021/08/05 05:05:34;;;;;;;1.40;1.30;;;17.70;79.00;;;17.71;64.18;94244.44;5012008;28;20216;-81
2021/08/05 05:08:31;;;;;;;1.30;1.27;;;17.80;79.20;;;17.71;63.74;94239.13;5012289;28;20303;-81
2021/08/05 05:10:58;;;;;;;1.35;1.25;;;17.80;79.70;;;17.71;64.03;94225.84;5020344;28;20220;-80
2021/08/05 05:13:26;;;;;;;1.45;1.35;;;17.80;79.20;;;17.76;63.84;94236.50;4996080;28;20318;-81
2021/08/05 05:15:53;;;;;;;1.60;1.50;;;17.80;79.20;;;17.79;63.96;94245.81;4995712;28;20235;-81
2021/08/05 05:18:23;;;;;;;1.58;1.48;;;17.80;79.20;;;17.81;64.12;94235.75;5012236;28;20193;-82
2021/08/05 05:20:52;;;;;;;1.63;1.52;;;17.80;79.40;;;17.84;63.71;94226.47;4995996;28;20240;-81
2021/08/05 05:23:20;;;;;;;1.60;1.30;;;17.80;79.20;;;17.84;63.73;94214.00;5011884;28;20203;-82
2021/08/05 05:25:48;;;;;;;1.40;1.30;;;17.90;79.20;;;17.84;63.79;94207.91;4995483;28;20247;-81
2021/08/05 05:28:15;;;;;;;2.38;1.80;;;17.90;79.20;;;17.87;63.82;94213.50;5011954;28;20680;-81
2021/08/05 05:30:42;;;;;;;1.52;1.42;;;17.90;79.20;;;17.88;64.01;94204.50;4994983;28;20316;-82
2021/08/05 05:33:10;;;;;;;1.85;1.65;;;17.90;79.20;;;17.92;64.11;94215.41;4995368;28;20216;-82
2021/08/05 05:35:38;;;;;;;1.60;1.50;;;17.90;79.10;;;17.93;63.67;94217.78;5011722;28;20236;-82
2021/08/05 05:38:07;;;;;;;3.40;1.77;;;17.90;79.10;;;17.94;64.14;94218.56;4995688;28;20272;-83
2021/08/05 05:40:36;;;;;;;1.70;1.60;;;17.90;79.20;;;17.99;63.80;94221.31;4995465;28;20239;-82
2021/08/05 05:43:04;;;;;;;1.50;1.40;;;18.00;79.30;;;18.04;64.02;94221.34;4995582;28;20229;-82
2021/08/05 05:45:33;;;;;;;1.55;1.45;;;18.00;79.40;;;18.06;64.07;94216.56;5027973;28;20221;-83
2021/08/05 05:48:01;;;;;;;1.67;1.58;;;18.10;80.20;;;18.07;64.00;94218.16;5011537;28;20543;-82
2021/08/05 05:50:30;;;;;;;1.63;1.52;;;18.10;79.30;;;18.09;64.04;94212.63;4995832;28;20615;-82
2021/08/05 05:52:59;;;;;;;2.05;1.60;;;18.10;79.20;;;18.12;64.17;94206.00;5011753;28;20270;-82
2021/08/05 05:55:27;;;;;;;2.72;1.55;;;18.10;79.30;;;18.15;63.76;94213.44;5011449;28;20213;-82
2021/08/05 05:57:54;;;;;;;1.63;1.50;;;18.10;79.30;;;18.18;63.68;94208.41;4995162;28;20236;-82
2021/08/05 06:00:21;;;;;;;1.92;1.70;;;18.10;79.30;;;18.22;64.08;94201.56;4979283;28;20252;-82
2021/08/05 06:02:48;;;;;;;1.73;1.40;;;18.20;79.60;;;18.31;64.09;94201.03;5011665;28;20470;-82
2021/08/05 06:05:15;;;;;;;1.48;1.38;;;18.20;79.60;;;18.32;63.78;94198.16;4995477;28;20223;-83
2021/08/05 06:07:51;;;;;;;1.40;1.30;;;18.30;79.80;;;18.40;63.96;94196.84;4995348;28;20212;-82
2021/08/05 06:10:21;;;;;;;1.50;1.40;;;18.30;79.70;;;18.43;63.66;94196.34;5011371;28;20227;-83
2021/08/05 06:12:49;;;;;;;1.48;1.38;;;18.40;79.60;;;18.46;63.75;94200.34;5011457;28;20661;-83
2021/08/05 06:15:18;;;;;;;2.08;1.40;;;18.40;79.50;;;18.46;63.99;94192.38;5011375;28;20227;-83
2021/08/05 06:17:45;;;;;;;1.60;1.50;;;18.40;79.20;;;18.45;63.97;94194.22;5011283;28;20189;-83
2021/08/05 06:20:17;;;;;;;1.52;1.42;;;18.40;79.20;;;18.46;63.47;94206.44;5011301;28;20216;-82
2021/08/05 06:22:45;;;;;;;1.40;1.30;;;18.50;79.10;;;18.45;63.63;94194.22;4994929;28;20205;-82
2021/08/05 06:25:13;;;;;;;1.38;1.27;;;18.50;79.10;;;18.48;63.76;94204.34;4995270;28;20303;-82
2021/08/05 06:27:41;;;;;;;1.40;1.30;;;18.50;79.10;;;18.48;63.86;94200.88;4979001;28;20533;-82
2021/08/05 06:30:10;;;;;;;1.92;1.70;;;18.50;79.10;;;18.49;63.87;94189.19;4995169;28;20209;-82
2021/08/05 06:32:37;;;;;;;1.73;1.50;;;18.50;79.10;;;18.48;63.58;94190.25;5011084;28;20710;-82
2021/08/05 06:35:07;;;;;;;1.60;1.50;;;18.50;79.10;;;18.50;63.77;94188.13;4995086;28;20213;-82
2021/08/05 06:37:35;;;;;;;1.52;1.42;;;18.50;79.10;;;18.52;63.80;94188.69;5012331;28;20193;-82
2021/08/05 06:40:05;;;;;;;2.17;1.60;;;18.50;79.10;;;18.53;63.69;94180.44;4995063;28;20217;-82
2021/08/05 06:42:34;;;;;;;1.60;1.50;;;18.50;79.10;;;18.53;63.93;94183.09;5011585;28;20201;-82
2021/08/05 06:45:04;;;;;;;2.83;1.55;;;18.60;79.20;;;18.60;63.41;94179.41;4982568;28;20235;-83
2021/08/05 06:47:31;;;;;;;2.13;1.67;;;18.60;79.30;;;18.63;63.60;94177.03;4998738;28;20189;-83
2021/08/05 06:49:59;;;;;;;2.38;2.03;;;18.60;79.30;;;18.68;63.75;94181.56;5014964;28;20227;-83
2021/08/05 06:52:26;;;;;;;1.80;1.70;;;18.70;79.40;;;18.72;63.46;94183.44;5014747;28;20593;-83
2021/08/05 06:54:53;;;;;;;2.58;2.00;;;18.60;79.40;;;18.72;63.56;94182.63;5014964;28;20240;-83
2021/08/05 06:57:20;;;;;;;1.73;1.52;;;18.70;79.30;;;18.78;63.52;94189.56;5014772;28;20208;-82
2021/08/05 06:59:47;;;;;;;1.67;1.58;;;18.80;79.50;;;18.81;63.48;94189.06;5014547;28;20212;-82
2021/08/05 07:02:14;;;;;;;1.73;1.63;;;18.70;79.30;;;18.82;63.58;94185.34;5030970;28;20295;-82
2021/08/05 07:04:42;;;;;;;1.80;1.70;;;18.80;79.30;;;18.86;63.41;94196.25;4998703;28;20287;-81
2021/08/05 07:07:09;;;;;;;1.70;1.60;;;18.80;79.20;;;18.85;63.29;94207.94;5013730;28;20193;-82
2021/08/05 07:09:37;;;;;;;2.28;1.65;;;18.80;79.80;;;18.83;63.46;94204.72;5031060;28;20205;-82
2021/08/05 07:12:04;;;;;;;1.83;1.73;;;18.80;78.90;;;18.80;63.68;94202.59;5014515;28;20217;-81
2021/08/05 07:14:32;;;;;;;1.70;1.60;;;18.80;78.80;;;18.76;63.27;94202.31;5014535;28;20284;-81
2021/08/05 07:16:59;;;;;;;2.05;1.90;;;18.80;78.90;;;18.76;63.66;94196.19;5014343;28;20197;-82
2021/08/05 07:19:26;;;;;;;1.80;1.70;;;18.80;79.00;;;18.78;63.65;94202.06;4982160;28;20211;-80
2021/08/05 07:21:53;;;;;;;1.90;1.80;;;18.80;79.00;;;18.79;63.82;94193.03;4997804;28;20663;-81
2021/08/05 07:24:20;;;;;;;1.92;1.83;;;18.80;79.30;;;18.84;63.74;94187.72;4981878;28;20651;-82
2021/08/05 07:26:47;;;;;;;2.08;1.98;;;18.80;79.20;;;18.90;63.99;94201.84;5014015;28;20291;-81
2021/08/05 07:29:15;;;;;;;1.90;1.80;;;18.90;79.30;;;18.88;63.89;94191.44;5014169;28;20295;-82
2021/08/05 07:31:42;;;;;;;2.13;1.92;;;18.90;79.50;;;18.97;63.74;94207.72;4997778;28;20197;-82
2021/08/05 07:34:09;;;;;;;2.30;2.10;;;18.90;79.50;;;18.99;63.92;94206.41;5013990;28;20232;-82
2021/08/05 07:36:36;;;;;;;2.20;2.00;;;18.90;79.40;;;19.01;63.84;94198.16;5013760;28;20221;-82
2021/08/05 07:39:06;;;;;;;2.00;1.90;;;19.00;79.40;;;19.06;63.58;94202.69;5013866;28;20197;-82
2021/08/05 07:41:33;;;;;;;2.42;2.20;;;19.10;79.30;;;19.09;63.54;94197.66;5013838;28;20597;-81
2021/08/05 07:44:00;;;;;;;2.13;1.98;;;19.00;79.30;;;19.15;63.66;94190.47;5013892;28;20235;-82
2021/08/05 07:46:27;;;;;;;2.60;2.40;;;19.10;79.40;;;19.19;63.62;94192.34;4997383;28;20275;-82
2021/08/05 07:48:55;;;;;;;2.47;2.08;;;19.20;79.50;;;19.29;63.72;94196.09;5013993;28;20272;-82
2021/08/05 07:51:22;;;;;;;2.60;2.25;;;19.20;79.80;;;19.42;64.03;94192.91;4997403;28;20252;-82
2021/08/05 07:53:50;;;;;;;2.60;2.20;;;19.20;79.90;;;19.51;64.09;94185.19;5013189;28;20228;-82
2021/08/05 07:56:18;;;;;;;2.33;2.13;;;19.30;80.00;;;19.60;63.89;94185.47;4997144;28;20228;-83
2021/08/05 07:58:45;;;;;;;2.97;2.63;;;19.40;79.90;;;19.65;63.71;94188.94;4997669;28;20197;-82
2021/08/05 08:01:12;;;;;;;2.55;2.35;;;19.40;79.70;;;19.64;63.31;94181.19;5013396;28;20236;-82
2021/08/05 08:03:40;;;;;;;3.22;2.50;;;19.50;79.60;;;19.66;63.61;94190.53;4980917;28;20235;-81
2021/08/05 08:06:07;;;;;;;3.20;2.72;;;19.50;79.30;;;19.63;63.34;94195.59;4996973;28;20352;-82
2021/08/05 08:08:34;;;;;;;2.75;2.50;;;19.50;79.10;;;19.61;62.90;94184.41;5013515;28;20192;-82
2021/08/05 08:11:02;;;;;;;2.78;2.58;;;19.50;79.10;;;19.60;63.21;94188.91;5013611;28;20280;-84
2021/08/05 08:13:31;;;;;;;3.17;2.38;;;19.50;79.20;;;19.62;63.33;94180.69;4997191;28;20705;-83
2021/08/05 08:15:59;;;;;;;2.50;2.30;;;19.50;79.10;;;19.64;63.47;94181.19;4997790;28;20221;-84
2021/08/05 08:18:26;;;;;;;2.42;2.22;;;19.60;79.10;;;19.63;63.09;94179.63;5013249;28;20209;-84
2021/08/05 08:20:55;;;;;;;2.60;2.40;;;19.60;79.10;;;19.58;62.81;94193.72;5013185;28;20279;-83
2021/08/05 08:23:24;;;;;;;3.33;2.60;;;19.60;78.70;;;19.49;63.33;94190.78;5013587;28;20201;-83
2021/08/05 08:25:51;;;;;;;2.50;2.30;;;19.60;78.60;;;19.41;62.73;94193.16;4996990;28;20231;-83
2021/08/05 08:28:18;;;;;;;2.50;2.30;;;19.50;78.40;;;19.32;63.27;94187.56;4997339;28;20636;-84
2021/08/05 08:30:46;;;;;;;2.05;1.95;;;19.50;78.20;;;19.19;62.84;94180.94;5013057;28;20300;-84
2021/08/05 08:33:13;;;;;;;2.05;1.95;;;19.40;78.30;;;19.16;63.70;94178.78;5013054;28;20231;-84
2021/08/05 08:35:40;;;;;;;2.47;2.28;;;19.40;78.50;;;19.13;63.67;94185.44;5013299;28;20256;-84
2021/08/05 08:38:07;;;;;;;2.13;1.92;;;19.30;78.60;;;19.06;63.86;94182.22;4980718;28;20208;-84
2021/08/05 08:40:34;;;;;;;2.30;2.10;;;19.20;78.50;;;19.04;63.44;94173.72;5013338;28;20227;-84
2021/08/05 08:43:04;;;;;;;2.35;2.15;;;19.20;78.50;;;19.01;63.50;94172.38;5012958;28;20228;-83
2021/08/05 08:45:35;;;;;;;2.40;2.20;;;19.20;78.50;;;18.97;63.28;94167.84;4997092;28;20787;-83
2021/08/05 08:48:06;;;;;;;5.00;2.30;;;19.20;78.60;;;18.92;63.48;94157.22;5012767;28;20625;-84
2021/08/05 08:50:34;;;;;;;2.40;2.20;;;19.10;78.60;;;18.91;63.82;94158.25;5012809;28;20224;-83
2021/08/05 08:53:09;;;;;;;2.40;2.20;;;19.10;78.70;;;18.94;63.91;94163.84;5011972;28;20702;-84
2021/08/05 08:55:43;;;;;;;2.67;2.17;;;19.00;79.00;;;18.99;64.04;94157.75;5013426;28;20220;-84
2021/08/05 08:58:11;;;;;;;2.30;2.10;;;19.00;79.20;;;19.04;63.57;94155.09;5013087;28;20662;-84
2021/08/05 09:00:38;;;;;;;3.35;2.20;;;19.00;79.20;;;19.08;63.50;94169.47;4996670;28;20212;-85
2021/08/05 09:03:07;;;;;;;2.05;1.88;;;19.10;79.20;;;19.10;63.83;94169.22;4996504;28;20643;-84
2021/08/05 09:05:35;;;;;;;2.00;1.90;;;19.20;79.30;;;19.11;64.15;94171.59;4995679;28;20271;-84
2021/08/05 09:08:03;;;;;;;1.90;1.80;;;19.10;79.20;;;19.13;64.33;94169.47;4996443;28;20251;-84
2021/08/05 09:10:32;;;;;;;1.80;1.70;;;19.10;79.20;;;19.18;64.29;94172.13;4996460;28;20221;-84
2021/08/05 09:13:02;;;;;;;1.65;1.55;;;19.20;79.40;;;19.20;64.10;94180.66;5012789;28;20228;-86
2021/08/05 09:15:42;;;;;;;1.88;1.77;;;19.20;79.50;;;19.26;63.86;94175.34;5013058;28;20308;-84
2021/08/05 09:18:28;;;;;;;2.05;1.60;;;19.20;79.40;;;19.33;64.37;94173.22;4996690;28;20192;-84
2021/08/05 09:21:24;;;;;;;1.60;1.50;;;19.30;79.90;;;19.36;64.23;94173.50;5024738;28;20219;-84
2021/08/05 09:24:03;;;;;;;1.50;1.40;;;19.30;79.70;;;19.44;64.19;94174.81;5008539;28;20207;-87
2021/08/05 09:26:46;;;;;;;1.50;1.40;;;19.30;79.70;;;19.47;64.06;94168.16;5016997;28;20223;-85
2021/08/05 09:29:19;;;;;;;1.55;1.45;;;19.30;79.50;;;19.56;64.02;94171.91;5016468;28;20195;-85
2021/08/05 09:31:57;;;;;;;1.60;1.50;;;19.40;79.70;;;19.64;64.09;94165.22;5015802;28;20208;-84
2021/08/05 09:34:34;;;;;;;1.50;1.40;;;19.50;79.70;;;19.70;63.93;94166.03;5016193;28;20235;-85
2021/08/05 09:37:05;;;;;;;2.35;1.50;;;19.50;79.40;;;19.76;63.62;94162.31;5032080;28;20192;-85
2021/08/05 09:39:35;;;;;;;1.70;1.60;;;19.60;79.50;;;19.80;63.50;94156.19;5032525;28;20196;-85
2021/08/05 09:42:11;;;;;;;1.60;1.50;;;19.60;79.50;;;19.86;63.51;94158.88;5020436;28;20602;-85
2021/08/05 09:44:38;;;;;;;1.60;1.50;;;19.70;79.40;;;19.83;62.98;94163.69;5012358;28;20220;-83
2021/08/05 09:47:12;;;;;;;1.63;1.52;;;19.70;79.20;;;19.78;62.90;94153.00;5013541;28;20196;-84
2021/08/05 09:50:01;;;;;;;1.50;1.40;;;19.70;79.20;;;19.73;62.90;94168.97;5012267;28;20619;-85
2021/08/05 09:52:34;;;;;;;1.42;1.38;;;19.70;78.90;;;19.67;63.57;94162.06;4996527;28;20591;-84
2021/08/05 09:55:10;;;;;;;1.70;1.60;;;19.70;78.90;;;19.64;63.75;94163.38;4995861;28;20733;-84
2021/08/05 09:57:41;;;;;;;1.90;1.40;;;19.70;78.80;;;19.65;63.24;94164.19;4980155;28;20223;-84
2021/08/05 10:00:17;;;;;;;1.80;1.70;;;19.70;79.10;;;19.71;63.76;94167.63;4996294;28;20216;-85
2021/08/05 10:02:48;;;;;;;1.98;1.88;;;19.70;79.50;;;19.80;63.55;94166.03;4980262;28;20274;-84
2021/08/05 10:05:21;;;;;;;1.70;1.60;;;19.70;79.60;;;19.94;63.46;94161.78;4980038;28;20220;-85
2021/08/05 10:07:53;;;;;;;1.60;1.50;;;19.70;79.80;;;20.04;63.43;94163.63;4979746;28;20260;-84
2021/08/05 10:10:27;;;;;;;1.63;1.52;;;19.80;79.70;;;20.09;63.25;94160.16;5012142;28;20867;-85
2021/08/05 10:12:57;;;;;;;1.85;1.75;;;19.90;79.80;;;20.20;63.14;94172.38;4996132;28;20261;-85
2021/08/05 10:15:26;;;;;;;1.90;1.80;;;20.00;80.00;;;20.28;63.27;94163.81;4995768;28;20230;-86
2021/08/05 10:17:59;;;;;;;2.47;2.28;;;20.00;79.60;;;20.33;63.46;94163.00;4998279;28;20274;-84
2021/08/05 10:20:29;;;;;;;2.30;2.10;;;20.10;80.20;;;20.38;62.90;94165.66;4984449;28;20228;-85
2021/08/05 10:22:57;;;;;;;1.80;1.70;;;20.10;79.20;;;20.42;63.13;94165.91;4999948;28;20264;-85
2021/08/05 10:25:26;;;;;;;2.40;2.00;;;20.20;79.00;;;20.45;63.08;94152.06;5016114;28;20580;-85
2021/08/05 10:27:58;;;;;;;2.00;1.85;;;20.30;79.10;;;20.52;62.58;94157.06;5015871;28;20639;-84
2021/08/05 10:30:26;;;;;;;2.15;2.00;;;20.30;79.00;;;20.49;62.86;94153.09;4999761;28;20615;-84